sensor_id;sensor_type;location;lat;lon;timestamp;temperature;humidity
28837;DHT22;50669;50.982;11.022;2022-10-12T00:02:02;6.90;99.90
28837;DHT22;50669;50.982;11.022;2022-10-12T00:04:28;6.80;99.90
28837;DHT22;50669;50.982;11.022;2022-10-12T00:06:54;6.80;99.90
28837;DHT22;50669;50.982;11.022;2022-10-12T00:09:22;6.80;99.90
28837;DHT22;50669;50.982;11.022;2022-10-12T00:11:47;6.80;99.90
28837;DHT22;50669;50.982;11.022;2022-10-12T00:14:13;6.70;99.90
28837;DHT22;50669;50.982;11.022;2022-10-12T00:16:39;6.70;99.90
28837;DHT22;50669;50.982;11.022;2022-10-12T00:19:04;6.70;99.90
28837;DHT22;50669;50.982;11.022;2022-10-12T00:21:35;6.70;99.90
28837;DHT22;50669;50.982;11.022;2022-10-12T00:24:01;6.60;99.90
28837;DHT22;50669;50.982;11.022;2022-10-12T00:26:27;6.60;99.90
28837;DHT22;50669;50.982;11.022;2022-10-12T00:28:58;6.60;99.90
28837;DHT22;50669;50.982;11.022;2022-10-12T00:31:26;6.60;99.90
28837;DHT22;50669;50.982;11.022;2022-10-12T00:33:52;6.50;99.90
28837;DHT22;50669;50.982;11.022;2022-10-12T00:36:29;6.50;99.90
28837;DHT22;50669;50.982;11.022;2022-10-12T00:38:56;6.50;99.90
28837;DHT22;50669;50.982;11.022;2022-10-12T00:41:24;6.40;99.90
28837;DHT22;50669;50.982;11.022;2022-10-12T00:43:53;6.40;99.90
28837;DHT22;50669;50.982;11.022;2022-10-12T00:49:22;6.30;99.90
28837;DHT22;50669;50.982;11.022;2022-10-12T00:51:52;6.20;99.90
28837;DHT22;50669;50.982;11.022;2022-10-12T00:54:27;6.20;99.90
28837;DHT22;50669;50.982;11.022;2022-10-12T00:56:57;6.20;99.90
28837;DHT22;50669;50.982;11.022;2022-10-12T00:59:29;6.20;99.90
28837;DHT22;50669;50.982;11.022;2022-10-12T01:01:57;6.20;99.90
28837;DHT22;50669;50.982;11.022;2022-10-12T01:04:23;6.10;99.90
28837;DHT22;50669;50.982;11.022;2022-10-12T01:06:50;6.10;99.90
28837;DHT22;50669;50.982;11.022;2022-10-12T01:09:16;6.10;99.90
28837;DHT22;50669;50.982;11.022;2022-10-12T01:11:42;6.10;99.90
28837;DHT22;50669;50.982;11.022;2022-10-12T01:14:08;6.10;99.90
28837;DHT22;50669;50.982;11.022;2022-10-12T01:22:07;6.10;99.90
28837;DHT22;50669;50.982;11.022;2022-10-12T01:35:45;6.00;99.90
28837;DHT22;50669;50.982;11.022;2022-10-12T01:43:38;6.00;99.90
28837;DHT22;50669;50.982;11.022;2022-10-12T01:48:47;5.90;99.90
28837;DHT22;50669;50.982;11.022;2022-10-12T01:51:28;5.90;99.90
28837;DHT22;50669;50.982;11.022;2022-10-12T01:56:53;5.90;99.90
28837;DHT22;50669;50.982;11.022;2022-10-12T02:07:41;5.70;99.90
28837;DHT22;50669;50.982;11.022;2022-10-12T02:10:14;5.70;99.90
28837;DHT22;50669;50.982;11.022;2022-10-12T02:12:44;5.60;99.90
28837;DHT22;50669;50.982;11.022;2022-10-12T02:15:12;5.60;99.90
28837;DHT22;50669;50.982;11.022;2022-10-12T02:17:44;5.50;99.90
28837;DHT22;50669;50.982;11.022;2022-10-12T02:20:14;5.50;99.90
28837;DHT22;50669;50.982;11.022;2022-10-12T02:22:44;5.50;99.90
28837;DHT22;50669;50.982;11.022;2022-10-12T02:25:12;5.50;99.90
28837;DHT22;50669;50.982;11.022;2022-10-12T02:27:42;5.50;99.90
28837;DHT22;50669;50.982;11.022;2022-10-12T02:30:09;5.50;99.90
28837;DHT22;50669;50.982;11.022;2022-10-12T02:38:12;5.50;99.90
28837;DHT22;50669;50.982;11.022;2022-10-12T02:40:52;5.40;99.90
28837;DHT22;50669;50.982;11.022;2022-10-12T02:45:53;5.40;99.90
28837;DHT22;50669;50.982;11.022;2022-10-12T02:48:20;5.30;99.90
28837;DHT22;50669;50.982;11.022;2022-10-12T02:50:49;5.30;99.90
28837;DHT22;50669;50.982;11.022;2022-10-12T02:53:16;5.30;99.90
28837;DHT22;50669;50.982;11.022;2022-10-12T02:55:50;5.30;99.90
28837;DHT22;50669;50.982;11.022;2022-10-12T02:58:17;5.20;99.90
28837;DHT22;50669;50.982;11.022;2022-10-12T03:00:42;5.20;99.90
28837;DHT22;50669;50.982;11.022;2022-10-12T03:03:08;5.20;99.90
28837;DHT22;50669;50.982;11.022;2022-10-12T03:05:39;5.10;99.90
28837;DHT22;50669;50.982;11.022;2022-10-12T03:08:04;5.00;99.90
28837;DHT22;50669;50.982;11.022;2022-10-12T03:10:30;5.00;99.90
28837;DHT22;50669;50.982;11.022;2022-10-12T03:12:58;5.00;99.90
28837;DHT22;50669;50.982;11.022;2022-10-12T03:15:26;5.00;99.90
28837;DHT22;50669;50.982;11.022;2022-10-12T03:17:51;5.00;99.90
28837;DHT22;50669;50.982;11.022;2022-10-12T03:20:17;5.00;99.90
28837;DHT22;50669;50.982;11.022;2022-10-12T03:22:43;5.00;99.90
28837;DHT22;50669;50.982;11.022;2022-10-12T03:25:11;5.00;99.90
28837;DHT22;50669;50.982;11.022;2022-10-12T03:27:36;5.00;99.90
28837;DHT22;50669;50.982;11.022;2022-10-12T03:30:05;5.00;99.90
28837;DHT22;50669;50.982;11.022;2022-10-12T03:32:30;5.00;99.90
28837;DHT22;50669;50.982;11.022;2022-10-12T03:34:56;5.00;99.90
28837;DHT22;50669;50.982;11.022;2022-10-12T03:37:26;5.00;99.90
28837;DHT22;50669;50.982;11.022;2022-10-12T03:39:54;5.00;99.90
28837;DHT22;50669;50.982;11.022;2022-10-12T03:42:20;5.00;99.90
28837;DHT22;50669;50.982;11.022;2022-10-12T03:44:45;4.90;99.90
28837;DHT22;50669;50.982;11.022;2022-10-12T03:47:11;4.90;99.90
28837;DHT22;50669;50.982;11.022;2022-10-12T03:49:36;4.90;99.90
28837;DHT22;50669;50.982;11.022;2022-10-12T03:52:02;4.90;99.90
28837;DHT22;50669;50.982;11.022;2022-10-12T03:54:28;4.80;99.90
28837;DHT22;50669;50.982;11.022;2022-10-12T03:56:53;4.80;99.90
28837;DHT22;50669;50.982;11.022;2022-10-12T03:59:19;4.80;99.90
28837;DHT22;50669;50.982;11.022;2022-10-12T04:01:45;4.80;99.90
28837;DHT22;50669;50.982;11.022;2022-10-12T04:04:10;4.80;99.90
28837;DHT22;50669;50.982;11.022;2022-10-12T04:06:38;4.80;99.90
28837;DHT22;50669;50.982;11.022;2022-10-12T04:09:06;4.80;99.90
28837;DHT22;50669;50.982;11.022;2022-10-12T04:11:32;4.80;99.90
28837;DHT22;50669;50.982;11.022;2022-10-12T04:13:57;4.70;99.90
28837;DHT22;50669;50.982;11.022;2022-10-12T04:16:23;4.70;99.90
28837;DHT22;50669;50.982;11.022;2022-10-12T04:18:48;4.70;99.90
28837;DHT22;50669;50.982;11.022;2022-10-12T04:21:18;4.70;99.90
28837;DHT22;50669;50.982;11.022;2022-10-12T04:23:50;4.80;99.90
28837;DHT22;50669;50.982;11.022;2022-10-12T04:26:18;4.80;99.90
28837;DHT22;50669;50.982;11.022;2022-10-12T04:28:44;4.70;99.90
28837;DHT22;50669;50.982;11.022;2022-10-12T04:31:09;4.70;99.90
28837;DHT22;50669;50.982;11.022;2022-10-12T04:33:35;4.70;99.90
28837;DHT22;50669;50.982;11.022;2022-10-12T04:36:03;4.70;99.90
28837;DHT22;50669;50.982;11.022;2022-10-12T04:38:29;4.70;99.90
28837;DHT22;50669;50.982;11.022;2022-10-12T04:40:54;4.60;99.90
28837;DHT22;50669;50.982;11.022;2022-10-12T04:43:22;4.60;99.90
28837;DHT22;50669;50.982;11.022;2022-10-12T04:45:55;4.50;99.90
28837;DHT22;50669;50.982;11.022;2022-10-12T04:48:22;4.50;99.90
28837;DHT22;50669;50.982;11.022;2022-10-12T04:50:48;4.40;99.90
28837;DHT22;50669;50.982;11.022;2022-10-12T04:53:13;4.40;99.90
28837;DHT22;50669;50.982;11.022;2022-10-12T04:55:39;4.30;99.90
28837;DHT22;50669;50.982;11.022;2022-10-12T04:58:05;4.20;99.90
28837;DHT22;50669;50.982;11.022;2022-10-12T05:00:31;4.20;99.90
28837;DHT22;50669;50.982;11.022;2022-10-12T05:02:56;4.10;99.90
28837;DHT22;50669;50.982;11.022;2022-10-12T05:05:22;4.10;99.90
28837;DHT22;50669;50.982;11.022;2022-10-12T05:07:50;4.10;99.90
28837;DHT22;50669;50.982;11.022;2022-10-12T05:10:18;4.10;99.90
28837;DHT22;50669;50.982;11.022;2022-10-12T05:12:43;4.10;99.90
28837;DHT22;50669;50.982;11.022;2022-10-12T05:15:11;4.10;99.90
28837;DHT22;50669;50.982;11.022;2022-10-12T05:17:39;4.10;99.90
28837;DHT22;50669;50.982;11.022;2022-10-12T05:20:05;4.20;99.90
28837;DHT22;50669;50.982;11.022;2022-10-12T05:22:31;4.20;99.90
28837;DHT22;50669;50.982;11.022;2022-10-12T05:24:57;4.30;99.90
28837;DHT22;50669;50.982;11.022;2022-10-12T05:27:25;4.30;99.90
28837;DHT22;50669;50.982;11.022;2022-10-12T05:29:53;4.30;99.90
28837;DHT22;50669;50.982;11.022;2022-10-12T05:32:21;4.30;99.90
28837;DHT22;50669;50.982;11.022;2022-10-12T05:34:47;4.30;99.90
28837;DHT22;50669;50.982;11.022;2022-10-12T05:37:13;4.30;99.90
28837;DHT22;50669;50.982;11.022;2022-10-12T05:39:39;4.30;99.90
28837;DHT22;50669;50.982;11.022;2022-10-12T05:42:04;4.40;99.90
28837;DHT22;50669;50.982;11.022;2022-10-12T05:44:35;4.40;99.90
28837;DHT22;50669;50.982;11.022;2022-10-12T05:47:00;4.40;99.90
28837;DHT22;50669;50.982;11.022;2022-10-12T05:49:26;4.40;99.90
28837;DHT22;50669;50.982;11.022;2022-10-12T05:51:51;4.40;99.90
28837;DHT22;50669;50.982;11.022;2022-10-12T05:54:17;4.50;99.90
28837;DHT22;50669;50.982;11.022;2022-10-12T05:56:47;4.50;99.90
28837;DHT22;50669;50.982;11.022;2022-10-12T05:59:13;4.50;99.90
28837;DHT22;50669;50.982;11.022;2022-10-12T06:01:39;4.50;99.90
28837;DHT22;50669;50.982;11.022;2022-10-12T06:04:07;4.50;99.90
28837;DHT22;50669;50.982;11.022;2022-10-12T06:06:33;4.60;99.90
28837;DHT22;50669;50.982;11.022;2022-10-12T06:09:01;4.60;99.90
28837;DHT22;50669;50.982;11.022;2022-10-12T06:11:29;4.60;99.90
28837;DHT22;50669;50.982;11.022;2022-10-12T06:13:55;4.70;99.90
28837;DHT22;50669;50.982;11.022;2022-10-12T06:16:20;4.70;99.90
28837;DHT22;50669;50.982;11.022;2022-10-12T06:18:46;4.80;99.90
28837;DHT22;50669;50.982;11.022;2022-10-12T06:21:11;4.80;99.90
28837;DHT22;50669;50.982;11.022;2022-10-12T06:23:37;4.80;99.90
28837;DHT22;50669;50.982;11.022;2022-10-12T06:26:03;4.80;99.90
28837;DHT22;50669;50.982;11.022;2022-10-12T06:28:31;4.80;99.90
28837;DHT22;50669;50.982;11.022;2022-10-12T06:31:00;4.90;99.90
28837;DHT22;50669;50.982;11.022;2022-10-12T06:33:26;4.80;99.90
28837;DHT22;50669;50.982;11.022;2022-10-12T06:35:53;4.90;99.90
28837;DHT22;50669;50.982;11.022;2022-10-12T06:38:18;5.10;99.90
28837;DHT22;50669;50.982;11.022;2022-10-12T06:40:44;5.30;99.90
28837;DHT22;50669;50.982;11.022;2022-10-12T06:43:15;5.50;99.90
28837;DHT22;50669;50.982;11.022;2022-10-12T06:45:43;5.60;99.90
28837;DHT22;50669;50.982;11.022;2022-10-12T06:48:09;5.70;99.90
28837;DHT22;50669;50.982;11.022;2022-10-12T06:50:36;5.80;99.90
28837;DHT22;50669;50.982;11.022;2022-10-12T06:53:01;5.90;99.90
28837;DHT22;50669;50.982;11.022;2022-10-12T06:55:27;5.80;99.90
28837;DHT22;50669;50.982;11.022;2022-10-12T06:57:54;5.70;99.90
28837;DHT22;50669;50.982;11.022;2022-10-12T07:00:20;5.70;99.90
28837;DHT22;50669;50.982;11.022;2022-10-12T07:02:50;5.80;99.90
28837;DHT22;50669;50.982;11.022;2022-10-12T07:05:16;5.80;99.90
28837;DHT22;50669;50.982;11.022;2022-10-12T07:07:42;5.80;99.90
28837;DHT22;50669;50.982;11.022;2022-10-12T07:10:08;5.90;99.90
28837;DHT22;50669;50.982;11.022;2022-10-12T07:12:35;6.00;99.90
28837;DHT22;50669;50.982;11.022;2022-10-12T07:15:04;6.00;99.90
28837;DHT22;50669;50.982;11.022;2022-10-12T07:17:32;6.10;99.90
28837;DHT22;50669;50.982;11.022;2022-10-12T07:19:58;6.20;99.90
28837;DHT22;50669;50.982;11.022;2022-10-12T07:22:25;6.30;99.90
28837;DHT22;50669;50.982;11.022;2022-10-12T07:24:50;6.30;99.90
28837;DHT22;50669;50.982;11.022;2022-10-12T07:27:16;6.50;99.90
28837;DHT22;50669;50.982;11.022;2022-10-12T07:29:41;6.50;99.90
28837;DHT22;50669;50.982;11.022;2022-10-12T07:32:07;6.60;99.90
28837;DHT22;50669;50.982;11.022;2022-10-12T07:34:33;6.70;99.90
28837;DHT22;50669;50.982;11.022;2022-10-12T07:37:01;6.80;99.90
28837;DHT22;50669;50.982;11.022;2022-10-12T07:39:27;6.80;99.90
28837;DHT22;50669;50.982;11.022;2022-10-12T07:41:52;7.00;99.90
28837;DHT22;50669;50.982;11.022;2022-10-12T07:44:19;7.10;99.90
28837;DHT22;50669;50.982;11.022;2022-10-12T07:46:45;7.20;99.90
28837;DHT22;50669;50.982;11.022;2022-10-12T07:49:12;7.30;99.90
28837;DHT22;50669;50.982;11.022;2022-10-12T07:51:38;7.40;99.90
28837;DHT22;50669;50.982;11.022;2022-10-12T07:54:04;7.40;99.90
28837;DHT22;50669;50.982;11.022;2022-10-12T07:56:30;7.50;99.90
28837;DHT22;50669;50.982;11.022;2022-10-12T07:58:56;7.60;99.90
28837;DHT22;50669;50.982;11.022;2022-10-12T08:01:24;7.70;99.90
28837;DHT22;50669;50.982;11.022;2022-10-12T08:03:51;7.80;99.90
28837;DHT22;50669;50.982;11.022;2022-10-12T08:06:22;7.90;99.90
28837;DHT22;50669;50.982;11.022;2022-10-12T08:08:48;8.00;99.90
28837;DHT22;50669;50.982;11.022;2022-10-12T08:11:15;8.10;99.90
28837;DHT22;50669;50.982;11.022;2022-10-12T08:13:41;8.20;99.90
28837;DHT22;50669;50.982;11.022;2022-10-12T08:16:10;8.30;99.90
28837;DHT22;50669;50.982;11.022;2022-10-12T08:18:38;8.40;99.90
28837;DHT22;50669;50.982;11.022;2022-10-12T08:21:09;8.50;99.90
28837;DHT22;50669;50.982;11.022;2022-10-12T08:23:35;8.50;99.90
28837;DHT22;50669;50.982;11.022;2022-10-12T08:26:04;8.60;99.90
28837;DHT22;50669;50.982;11.022;2022-10-12T08:28:30;8.70;99.90
28837;DHT22;50669;50.982;11.022;2022-10-12T08:31:04;8.80;99.90
28837;DHT22;50669;50.982;11.022;2022-10-12T08:33:32;8.70;99.90
28837;DHT22;50669;50.982;11.022;2022-10-12T08:36:01;8.90;99.90
28837;DHT22;50669;50.982;11.022;2022-10-12T08:38:30;8.90;99.90
28837;DHT22;50669;50.982;11.022;2022-10-12T08:45:59;9.20;99.90
28837;DHT22;50669;50.982;11.022;2022-10-12T08:48:29;9.30;99.90
28837;DHT22;50669;50.982;11.022;2022-10-12T08:50:58;9.40;99.90
28837;DHT22;50669;50.982;11.022;2022-10-12T08:53:30;9.40;99.90
28837;DHT22;50669;50.982;11.022;2022-10-12T08:55:58;9.50;99.90
28837;DHT22;50669;50.982;11.022;2022-10-12T08:58:34;9.50;99.90
28837;DHT22;50669;50.982;11.022;2022-10-12T09:01:35;9.50;99.90
28837;DHT22;50669;50.982;11.022;2022-10-12T09:07:29;9.80;99.90
28837;DHT22;50669;50.982;11.022;2022-10-12T09:12:28;9.90;99.90
28837;DHT22;50669;50.982;11.022;2022-10-12T09:14:59;10.00;99.90
28837;DHT22;50669;50.982;11.022;2022-10-12T09:20:19;10.30;99.90
28837;DHT22;50669;50.982;11.022;2022-10-12T09:22:50;10.40;99.90
28837;DHT22;50669;50.982;11.022;2022-10-12T09:25:21;10.50;99.90
28837;DHT22;50669;50.982;11.022;2022-10-12T09:27:47;10.50;99.90
28837;DHT22;50669;50.982;11.022;2022-10-12T09:30:16;10.70;99.90
28837;DHT22;50669;50.982;11.022;2022-10-12T09:35:23;10.70;99.90
28837;DHT22;50669;50.982;11.022;2022-10-12T09:37:51;10.90;99.90
28837;DHT22;50669;50.982;11.022;2022-10-12T09:40:32;11.00;99.90
28837;DHT22;50669;50.982;11.022;2022-10-12T09:43:01;11.10;99.90
28837;DHT22;50669;50.982;11.022;2022-10-12T09:45:29;11.30;99.90
28837;DHT22;50669;50.982;11.022;2022-10-12T09:48:23;11.40;99.90
28837;DHT22;50669;50.982;11.022;2022-10-12T09:50:55;11.50;99.90
28837;DHT22;50669;50.982;11.022;2022-10-12T09:56:06;11.50;99.90
28837;DHT22;50669;50.982;11.022;2022-10-12T09:58:40;11.60;99.90
28837;DHT22;50669;50.982;11.022;2022-10-12T10:01:17;11.70;99.90
28837;DHT22;50669;50.982;11.022;2022-10-12T10:03:47;11.80;99.90
28837;DHT22;50669;50.982;11.022;2022-10-12T10:06:22;12.00;99.90
28837;DHT22;50669;50.982;11.022;2022-10-12T10:08:48;12.20;99.90
28837;DHT22;50669;50.982;11.022;2022-10-12T10:11:17;12.30;99.90
28837;DHT22;50669;50.982;11.022;2022-10-12T10:13:52;12.30;99.90
28837;DHT22;50669;50.982;11.022;2022-10-12T10:16:23;12.50;99.90
28837;DHT22;50669;50.982;11.022;2022-10-12T10:24:00;12.70;99.90
28837;DHT22;50669;50.982;11.022;2022-10-12T10:29:29;12.80;99.90
28837;DHT22;50669;50.982;11.022;2022-10-12T10:32:20;13.10;99.90
28837;DHT22;50669;50.982;11.022;2022-10-12T10:35:04;14.10;99.90
28837;DHT22;50669;50.982;11.022;2022-10-12T10:37:30;15.10;99.90
28837;DHT22;50669;50.982;11.022;2022-10-12T10:39:58;16.70;99.90
28837;DHT22;50669;50.982;11.022;2022-10-12T10:42:33;18.10;99.90
28837;DHT22;50669;50.982;11.022;2022-10-12T10:45:28;18.70;98.40
28837;DHT22;50669;50.982;11.022;2022-10-12T10:47:55;19.80;96.40
28837;DHT22;50669;50.982;11.022;2022-10-12T10:50:37;21.00;94.80
28837;DHT22;50669;50.982;11.022;2022-10-12T10:53:17;22.10;91.30
28837;DHT22;50669;50.982;11.022;2022-10-12T10:55:48;22.40;88.20
28837;DHT22;50669;50.982;11.022;2022-10-12T11:01:53;23.90;82.50
28837;DHT22;50669;50.982;11.022;2022-10-12T11:04:21;24.60;79.00
28837;DHT22;50669;50.982;11.022;2022-10-12T11:06:58;24.50;76.40
28837;DHT22;50669;50.982;11.022;2022-10-12T11:09:29;25.20;73.90
28837;DHT22;50669;50.982;11.022;2022-10-12T11:12:02;25.90;71.80
28837;DHT22;50669;50.982;11.022;2022-10-12T11:15:00;26.20;70.20
28837;DHT22;50669;50.982;11.022;2022-10-12T11:17:39;25.80;68.70
28837;DHT22;50669;50.982;11.022;2022-10-12T11:23:27;22.90;71.30
28837;DHT22;50669;50.982;11.022;2022-10-12T11:26:09;21.00;78.60
28837;DHT22;50669;50.982;11.022;2022-10-12T11:28:41;21.30;80.10
28837;DHT22;50669;50.982;11.022;2022-10-12T11:31:15;21.50;78.20
28837;DHT22;50669;50.982;11.022;2022-10-12T11:33:43;21.40;78.70
28837;DHT22;50669;50.982;11.022;2022-10-12T11:36:12;21.40;79.50
28837;DHT22;50669;50.982;11.022;2022-10-12T11:38:45;21.00;80.70
28837;DHT22;50669;50.982;11.022;2022-10-12T11:41:19;20.70;81.50
28837;DHT22;50669;50.982;11.022;2022-10-12T11:43:52;20.80;81.80
28837;DHT22;50669;50.982;11.022;2022-10-12T11:46:27;20.80;82.50
28837;DHT22;50669;50.982;11.022;2022-10-12T11:49:00;20.90;81.60
28837;DHT22;50669;50.982;11.022;2022-10-12T11:51:27;20.50;82.00
28837;DHT22;50669;50.982;11.022;2022-10-12T11:54:05;20.10;83.40
28837;DHT22;50669;50.982;11.022;2022-10-12T11:56:45;20.00;85.20
28837;DHT22;50669;50.982;11.022;2022-10-12T11:59:28;21.50;82.30
28837;DHT22;50669;50.982;11.022;2022-10-12T12:04:43;23.30;76.50
28837;DHT22;50669;50.982;11.022;2022-10-12T12:09:48;24.10;74.90
28837;DHT22;50669;50.982;11.022;2022-10-12T12:12:28;25.10;72.10
28837;DHT22;50669;50.982;11.022;2022-10-12T12:19:46;27.00;67.20
28837;DHT22;50669;50.982;11.022;2022-10-12T12:35:59;32.00;57.00
28837;DHT22;50669;50.982;11.022;2022-10-12T12:38:34;32.80;54.30
28837;DHT22;50669;50.982;11.022;2022-10-12T12:41:14;32.40;51.70
28837;DHT22;50669;50.982;11.022;2022-10-12T12:46:11;29.90;54.00
28837;DHT22;50669;50.982;11.022;2022-10-12T12:51:16;28.60;57.90
28837;DHT22;50669;50.982;11.022;2022-10-12T12:54:14;27.80;57.00
28837;DHT22;50669;50.982;11.022;2022-10-12T13:19:32;23.70;67.80
28837;DHT22;50669;50.982;11.022;2022-10-12T13:22:04;23.30;69.40
28837;DHT22;50669;50.982;11.022;2022-10-12T13:27:42;22.90;72.30
28837;DHT22;50669;50.982;11.022;2022-10-12T13:32:46;23.50;69.80
28837;DHT22;50669;50.982;11.022;2022-10-12T13:38:24;22.60;72.00
28837;DHT22;50669;50.982;11.022;2022-10-12T13:43:44;21.20;76.30
28837;DHT22;50669;50.982;11.022;2022-10-12T13:46:12;20.90;77.10
28837;DHT22;50669;50.982;11.022;2022-10-12T13:48:38;20.40;79.20
28837;DHT22;50669;50.982;11.022;2022-10-12T13:51:21;20.10;80.30
28837;DHT22;50669;50.982;11.022;2022-10-12T13:53:48;19.90;81.00
28837;DHT22;50669;50.982;11.022;2022-10-12T13:56:24;19.70;81.40
28837;DHT22;50669;50.982;11.022;2022-10-12T13:58:56;19.60;82.00
28837;DHT22;50669;50.982;11.022;2022-10-12T14:01:23;19.40;82.70
28837;DHT22;50669;50.982;11.022;2022-10-12T14:03:49;19.10;83.40
28837;DHT22;50669;50.982;11.022;2022-10-12T14:06:27;19.00;84.40
28837;DHT22;50669;50.982;11.022;2022-10-12T14:09:15;18.90;84.80
28837;DHT22;50669;50.982;11.022;2022-10-12T14:11:42;18.70;86.10
28837;DHT22;50669;50.982;11.022;2022-10-12T14:14:33;18.60;86.70
28837;DHT22;50669;50.982;11.022;2022-10-12T14:16:59;18.60;86.90
28837;DHT22;50669;50.982;11.022;2022-10-12T14:19:32;18.40;87.50
28837;DHT22;50669;50.982;11.022;2022-10-12T14:21:59;18.40;88.20
28837;DHT22;50669;50.982;11.022;2022-10-12T14:24:25;18.20;88.20
28837;DHT22;50669;50.982;11.022;2022-10-12T14:26:56;18.10;88.40
28837;DHT22;50669;50.982;11.022;2022-10-12T14:29:41;18.10;89.00
28837;DHT22;50669;50.982;11.022;2022-10-12T14:34:40;17.90;90.20
28837;DHT22;50669;50.982;11.022;2022-10-12T14:39:43;17.80;90.40
28837;DHT22;50669;50.982;11.022;2022-10-12T14:44:43;17.70;90.80
28837;DHT22;50669;50.982;11.022;2022-10-12T14:47:24;17.70;90.90
28837;DHT22;50669;50.982;11.022;2022-10-12T14:49:51;17.60;91.00
28837;DHT22;50669;50.982;11.022;2022-10-12T14:52:31;17.60;91.20
28837;DHT22;50669;50.982;11.022;2022-10-12T14:55:03;17.50;91.50
28837;DHT22;50669;50.982;11.022;2022-10-12T14:57:30;17.40;91.70
28837;DHT22;50669;50.982;11.022;2022-10-12T14:59:58;17.40;91.80
28837;DHT22;50669;50.982;11.022;2022-10-12T15:02:30;17.30;91.80
28837;DHT22;50669;50.982;11.022;2022-10-12T15:04:58;17.20;92.40
28837;DHT22;50669;50.982;11.022;2022-10-12T15:07:31;17.10;92.40
28837;DHT22;50669;50.982;11.022;2022-10-12T15:09:56;17.00;92.50
28837;DHT22;50669;50.982;11.022;2022-10-12T15:12:23;16.90;92.80
28837;DHT22;50669;50.982;11.022;2022-10-12T15:14:54;16.80;93.10
28837;DHT22;50669;50.982;11.022;2022-10-12T15:17:22;16.70;93.30
28837;DHT22;50669;50.982;11.022;2022-10-12T15:19:51;16.60;93.90
28837;DHT22;50669;50.982;11.022;2022-10-12T15:22:19;16.60;93.70
28837;DHT22;50669;50.982;11.022;2022-10-12T15:24:48;16.50;93.70
28837;DHT22;50669;50.982;11.022;2022-10-12T15:27:17;16.50;93.70
28837;DHT22;50669;50.982;11.022;2022-10-12T15:29:43;16.40;93.80
28837;DHT22;50669;50.982;11.022;2022-10-12T15:32:15;16.40;94.20
28837;DHT22;50669;50.982;11.022;2022-10-12T15:34:41;16.40;94.10
28837;DHT22;50669;50.982;11.022;2022-10-12T15:37:07;16.40;94.60
28837;DHT22;50669;50.982;11.022;2022-10-12T15:39:33;16.40;94.50
28837;DHT22;50669;50.982;11.022;2022-10-12T15:41:59;16.30;94.70
28837;DHT22;50669;50.982;11.022;2022-10-12T15:44:25;16.30;94.70
28837;DHT22;50669;50.982;11.022;2022-10-12T15:46:51;16.20;95.00
28837;DHT22;50669;50.982;11.022;2022-10-12T15:49:20;16.20;95.20
28837;DHT22;50669;50.982;11.022;2022-10-12T15:51:51;16.10;95.40
28837;DHT22;50669;50.982;11.022;2022-10-12T15:54:19;16.10;95.50
28837;DHT22;50669;50.982;11.022;2022-10-12T15:56:45;16.00;95.90
28837;DHT22;50669;50.982;11.022;2022-10-12T15:59:10;15.90;96.20
28837;DHT22;50669;50.982;11.022;2022-10-12T16:01:41;15.80;96.20
28837;DHT22;50669;50.982;11.022;2022-10-12T16:04:12;15.70;96.50
28837;DHT22;50669;50.982;11.022;2022-10-12T16:06:39;15.70;97.00
28837;DHT22;50669;50.982;11.022;2022-10-12T16:09:07;15.60;97.20
28837;DHT22;50669;50.982;11.022;2022-10-12T16:11:33;15.40;97.50
28837;DHT22;50669;50.982;11.022;2022-10-12T16:14:01;15.40;97.50
28837;DHT22;50669;50.982;11.022;2022-10-12T16:16:27;15.30;97.70
28837;DHT22;50669;50.982;11.022;2022-10-12T16:18:54;15.20;98.20
28837;DHT22;50669;50.982;11.022;2022-10-12T16:21:20;15.10;98.80
28837;DHT22;50669;50.982;11.022;2022-10-12T16:23:45;15.00;99.00
28837;DHT22;50669;50.982;11.022;2022-10-12T16:26:12;14.90;99.40
28837;DHT22;50669;50.982;11.022;2022-10-12T16:28:38;14.70;99.50
28837;DHT22;50669;50.982;11.022;2022-10-12T16:31:13;14.70;99.60
28837;DHT22;50669;50.982;11.022;2022-10-12T16:33:42;14.60;99.90
28837;DHT22;50669;50.982;11.022;2022-10-12T16:36:10;14.50;99.90
28837;DHT22;50669;50.982;11.022;2022-10-12T16:38:36;14.40;99.90
28837;DHT22;50669;50.982;11.022;2022-10-12T16:41:11;14.40;99.90
28837;DHT22;50669;50.982;11.022;2022-10-12T16:43:39;14.30;99.90
28837;DHT22;50669;50.982;11.022;2022-10-12T16:46:08;14.20;99.90
28837;DHT22;50669;50.982;11.022;2022-10-12T16:48:36;14.20;99.90
28837;DHT22;50669;50.982;11.022;2022-10-12T16:51:08;14.10;99.90
28837;DHT22;50669;50.982;11.022;2022-10-12T16:53:34;14.10;99.90
28837;DHT22;50669;50.982;11.022;2022-10-12T16:56:00;14.00;99.90
28837;DHT22;50669;50.982;11.022;2022-10-12T16:58:26;13.90;99.90
28837;DHT22;50669;50.982;11.022;2022-10-12T17:00:55;13.90;99.90
28837;DHT22;50669;50.982;11.022;2022-10-12T17:03:22;13.80;99.90
28837;DHT22;50669;50.982;11.022;2022-10-12T17:05:57;13.80;99.90
28837;DHT22;50669;50.982;11.022;2022-10-12T17:08:23;13.70;99.90
28837;DHT22;50669;50.982;11.022;2022-10-12T17:10:49;13.70;99.90
28837;DHT22;50669;50.982;11.022;2022-10-12T17:13:19;13.60;99.90
28837;DHT22;50669;50.982;11.022;2022-10-12T17:15:45;13.60;99.90
28837;DHT22;50669;50.982;11.022;2022-10-12T17:18:13;13.50;99.90
28837;DHT22;50669;50.982;11.022;2022-10-12T17:20:38;13.50;99.90
28837;DHT22;50669;50.982;11.022;2022-10-12T17:23:07;13.50;99.90
28837;DHT22;50669;50.982;11.022;2022-10-12T17:25:32;13.40;99.90
28837;DHT22;50669;50.982;11.022;2022-10-12T17:27:58;13.30;99.90
28837;DHT22;50669;50.982;11.022;2022-10-12T17:30:26;13.30;99.90
28837;DHT22;50669;50.982;11.022;2022-10-12T17:32:52;13.30;99.90
28837;DHT22;50669;50.982;11.022;2022-10-12T17:35:20;13.20;99.90
28837;DHT22;50669;50.982;11.022;2022-10-12T17:37:45;13.20;99.90
28837;DHT22;50669;50.982;11.022;2022-10-12T17:40:11;13.10;99.90
28837;DHT22;50669;50.982;11.022;2022-10-12T17:42:37;13.10;99.90
28837;DHT22;50669;50.982;11.022;2022-10-12T17:45:02;13.10;99.90
28837;DHT22;50669;50.982;11.022;2022-10-12T17:47:28;13.00;99.90
28837;DHT22;50669;50.982;11.022;2022-10-12T17:49:54;13.00;99.90
28837;DHT22;50669;50.982;11.022;2022-10-12T17:52:19;13.00;99.90
28837;DHT22;50669;50.982;11.022;2022-10-12T17:54:45;12.90;99.90
28837;DHT22;50669;50.982;11.022;2022-10-12T17:57:10;12.90;99.90
28837;DHT22;50669;50.982;11.022;2022-10-12T17:59:39;12.80;99.90
28837;DHT22;50669;50.982;11.022;2022-10-12T18:02:04;12.80;99.90
28837;DHT22;50669;50.982;11.022;2022-10-12T18:04:30;12.70;99.90
28837;DHT22;50669;50.982;11.022;2022-10-12T18:06:56;12.60;99.90
28837;DHT22;50669;50.982;11.022;2022-10-12T18:09:21;12.60;99.90